sensor_id;sensor_type;location;lat;lon;timestamp;P1;durP1;ratioP1;P2;durP2;ratioP2
24457;SDS011;12629;50.860;5.714;2022-10-16T00:01:52;3.83;;;1.52;;
24457;SDS011;12629;50.860;5.714;2022-10-16T00:04:19;3.35;;;1.55;;
24457;SDS011;12629;50.860;5.714;2022-10-16T00:06:47;3.15;;;1.38;;
24457;SDS011;12629;50.860;5.714;2022-10-16T00:09:15;3.40;;;1.60;;
24457;SDS011;12629;50.860;5.714;2022-10-16T00:11:43;5.93;;;1.50;;
24457;SDS011;12629;50.860;5.714;2022-10-16T00:14:10;5.22;;;1.65;;
24457;SDS011;12629;50.860;5.714;2022-10-16T00:16:39;4.20;;;1.73;;
24457;SDS011;12629;50.860;5.714;2022-10-16T00:19:07;5.38;;;1.55;;
24457;SDS011;12629;50.860;5.714;2022-10-16T00:21:36;5.53;;;1.88;;
24457;SDS011;12629;50.860;5.714;2022-10-16T00:24:05;2.65;;;1.58;;
24457;SDS011;12629;50.860;5.714;2022-10-16T00:26:36;5.10;;;1.65;;
24457;SDS011;12629;50.860;5.714;2022-10-16T00:29:05;3.33;;;1.50;;
24457;SDS011;12629;50.860;5.714;2022-10-16T00:31:32;5.63;;;1.73;;
24457;SDS011;12629;50.860;5.714;2022-10-16T00:34:00;4.57;;;1.65;;
24457;SDS011;12629;50.860;5.714;2022-10-16T00:36:27;5.57;;;1.70;;
24457;SDS011;12629;50.860;5.714;2022-10-16T00:38:56;4.68;;;1.90;;
24457;SDS011;12629;50.860;5.714;2022-10-16T00:41:25;2.90;;;1.67;;
24457;SDS011;12629;50.860;5.714;2022-10-16T00:43:55;2.63;;;1.60;;
24457;SDS011;12629;50.860;5.714;2022-10-16T00:46:24;3.17;;;1.70;;
24457;SDS011;12629;50.860;5.714;2022-10-16T00:48:55;4.15;;;1.50;;
24457;SDS011;12629;50.860;5.714;2022-10-16T00:51:31;2.90;;;1.60;;
24457;SDS011;12629;50.860;5.714;2022-10-16T00:54:01;3.45;;;1.80;;
24457;SDS011;12629;50.860;5.714;2022-10-16T00:56:31;3.60;;;1.90;;
24457;SDS011;12629;50.860;5.714;2022-10-16T00:59:01;3.88;;;1.67;;
24457;SDS011;12629;50.860;5.714;2022-10-16T01:01:29;4.55;;;1.60;;
24457;SDS011;12629;50.860;5.714;2022-10-16T01:03:57;3.80;;;1.60;;
24457;SDS011;12629;50.860;5.714;2022-10-16T01:06:24;3.35;;;1.50;;
24457;SDS011;12629;50.860;5.714;2022-10-16T01:09:11;3.42;;;1.40;;
24457;SDS011;12629;50.860;5.714;2022-10-16T01:11:45;4.25;;;1.40;;
24457;SDS011;12629;50.860;5.714;2022-10-16T01:14:28;2.28;;;1.38;;
24457;SDS011;12629;50.860;5.714;2022-10-16T01:17:01;5.60;;;1.33;;
24457;SDS011;12629;50.860;5.714;2022-10-16T01:19:37;5.68;;;1.67;;
24457;SDS011;12629;50.860;5.714;2022-10-16T01:22:33;3.20;;;1.65;;
24457;SDS011;12629;50.860;5.714;2022-10-16T01:25:09;5.70;;;1.40;;
24457;SDS011;12629;50.860;5.714;2022-10-16T01:27:42;3.47;;;1.50;;
24457;SDS011;12629;50.860;5.714;2022-10-16T01:30:13;2.60;;;1.60;;
24457;SDS011;12629;50.860;5.714;2022-10-16T01:32:45;3.72;;;1.52;;
24457;SDS011;12629;50.860;5.714;2022-10-16T01:35:17;2.28;;;1.30;;
24457;SDS011;12629;50.860;5.714;2022-10-16T01:37:48;7.03;;;1.80;;
24457;SDS011;12629;50.860;5.714;2022-10-16T01:40:20;3.58;;;1.20;;
24457;SDS011;12629;50.860;5.714;2022-10-16T01:42:52;4.32;;;1.60;;
24457;SDS011;12629;50.860;5.714;2022-10-16T01:45:22;3.10;;;1.30;;
24457;SDS011;12629;50.860;5.714;2022-10-16T01:47:50;2.40;;;1.20;;
24457;SDS011;12629;50.860;5.714;2022-10-16T01:50:19;3.20;;;1.17;;
24457;SDS011;12629;50.860;5.714;2022-10-16T01:52:48;2.58;;;1.55;;
24457;SDS011;12629;50.860;5.714;2022-10-16T01:55:20;3.60;;;1.40;;
24457;SDS011;12629;50.860;5.714;2022-10-16T01:57:53;2.13;;;1.30;;
24457;SDS011;12629;50.860;5.714;2022-10-16T02:00:22;3.83;;;1.30;;
24457;SDS011;12629;50.860;5.714;2022-10-16T02:02:51;3.17;;;1.42;;
24457;SDS011;12629;50.860;5.714;2022-10-16T02:05:22;1.85;;;1.15;;
24457;SDS011;12629;50.860;5.714;2022-10-16T02:10:20;4.05;;;1.10;;
24457;SDS011;12629;50.860;5.714;2022-10-16T02:12:49;1.67;;;1.13;;
24457;SDS011;12629;50.860;5.714;2022-10-16T02:15:22;3.03;;;1.23;;
24457;SDS011;12629;50.860;5.714;2022-10-16T02:17:50;4.20;;;1.25;;
24457;SDS011;12629;50.860;5.714;2022-10-16T02:20:17;3.05;;;1.23;;
24457;SDS011;12629;50.860;5.714;2022-10-16T02:22:48;5.60;;;1.52;;
24457;SDS011;12629;50.860;5.714;2022-10-16T02:25:17;3.42;;;1.30;;
24457;SDS011;12629;50.860;5.714;2022-10-16T02:27:52;4.88;;;1.40;;
24457;SDS011;12629;50.860;5.714;2022-10-16T02:30:26;4.53;;;1.55;;
24457;SDS011;12629;50.860;5.714;2022-10-16T02:32:57;2.70;;;1.50;;
24457;SDS011;12629;50.860;5.714;2022-10-16T02:35:26;3.42;;;1.40;;
24457;SDS011;12629;50.860;5.714;2022-10-16T02:37:55;4.43;;;1.70;;
24457;SDS011;12629;50.860;5.714;2022-10-16T02:40:24;3.85;;;1.60;;
24457;SDS011;12629;50.860;5.714;2022-10-16T02:42:52;4.60;;;1.60;;
24457;SDS011;12629;50.860;5.714;2022-10-16T02:45:21;4.63;;;1.70;;
24457;SDS011;12629;50.860;5.714;2022-10-16T02:47:50;4.00;;;1.30;;
24457;SDS011;12629;50.860;5.714;2022-10-16T02:50:17;3.85;;;1.50;;
24457;SDS011;12629;50.860;5.714;2022-10-16T02:52:44;3.78;;;1.58;;
24457;SDS011;12629;50.860;5.714;2022-10-16T02:55:12;5.03;;;1.65;;
24457;SDS011;12629;50.860;5.714;2022-10-16T02:57:39;3.42;;;1.40;;
24457;SDS011;12629;50.860;5.714;2022-10-16T03:00:06;4.45;;;1.40;;
24457;SDS011;12629;50.860;5.714;2022-10-16T03:02:35;8.00;;;1.70;;
24457;SDS011;12629;50.860;5.714;2022-10-16T03:05:05;7.05;;;1.40;;
24457;SDS011;12629;50.860;5.714;2022-10-16T03:07:32;3.20;;;1.40;;
24457;SDS011;12629;50.860;5.714;2022-10-16T03:09:59;3.63;;;1.30;;
24457;SDS011;12629;50.860;5.714;2022-10-16T03:12:27;6.63;;;1.38;;
24457;SDS011;12629;50.860;5.714;2022-10-16T03:14:54;3.45;;;1.30;;
24457;SDS011;12629;50.860;5.714;2022-10-16T03:17:22;5.32;;;1.50;;
24457;SDS011;12629;50.860;5.714;2022-10-16T03:19:49;3.67;;;1.52;;
24457;SDS011;12629;50.860;5.714;2022-10-16T03:22:18;5.30;;;1.60;;
24457;SDS011;12629;50.860;5.714;2022-10-16T03:24:45;4.38;;;1.58;;
24457;SDS011;12629;50.860;5.714;2022-10-16T03:27:13;3.97;;;1.65;;
24457;SDS011;12629;50.860;5.714;2022-10-16T03:29:40;5.30;;;1.40;;
24457;SDS011;12629;50.860;5.714;2022-10-16T03:32:07;4.13;;;1.42;;
24457;SDS011;12629;50.860;5.714;2022-10-16T03:34:34;4.65;;;1.50;;
24457;SDS011;12629;50.860;5.714;2022-10-16T03:37:01;7.18;;;1.63;;
24457;SDS011;12629;50.860;5.714;2022-10-16T03:39:30;2.58;;;1.25;;
24457;SDS011;12629;50.860;5.714;2022-10-16T03:41:57;3.67;;;1.40;;
24457;SDS011;12629;50.860;5.714;2022-10-16T03:44:24;1.83;;;1.10;;
24457;SDS011;12629;50.860;5.714;2022-10-16T03:46:52;3.47;;;1.60;;
24457;SDS011;12629;50.860;5.714;2022-10-16T03:49:19;3.00;;;1.40;;
24457;SDS011;12629;50.860;5.714;2022-10-16T03:51:46;2.22;;;1.20;;
24457;SDS011;12629;50.860;5.714;2022-10-16T03:54:13;6.15;;;1.40;;
24457;SDS011;12629;50.860;5.714;2022-10-16T03:56:42;3.38;;;1.35;;
24457;SDS011;12629;50.860;5.714;2022-10-16T03:59:09;3.13;;;1.27;;
24457;SDS011;12629;50.860;5.714;2022-10-16T04:01:36;2.80;;;1.42;;
24457;SDS011;12629;50.860;5.714;2022-10-16T04:04:03;2.70;;;1.50;;
24457;SDS011;12629;50.860;5.714;2022-10-16T04:06:31;2.42;;;1.48;;
24457;SDS011;12629;50.860;5.714;2022-10-16T04:08:58;3.03;;;1.30;;
24457;SDS011;12629;50.860;5.714;2022-10-16T04:11:25;2.20;;;1.30;;
24457;SDS011;12629;50.860;5.714;2022-10-16T04:13:54;3.20;;;1.40;;
24457;SDS011;12629;50.860;5.714;2022-10-16T04:16:21;3.47;;;1.50;;
24457;SDS011;12629;50.860;5.714;2022-10-16T04:18:48;3.35;;;1.30;;
24457;SDS011;12629;50.860;5.714;2022-10-16T04:21:15;3.65;;;1.50;;
24457;SDS011;12629;50.860;5.714;2022-10-16T04:23:42;4.05;;;1.55;;
24457;SDS011;12629;50.860;5.714;2022-10-16T04:26:09;5.88;;;1.45;;
24457;SDS011;12629;50.860;5.714;2022-10-16T04:28:37;6.05;;;1.58;;
24457;SDS011;12629;50.860;5.714;2022-10-16T04:31:05;2.92;;;1.48;;
24457;SDS011;12629;50.860;5.714;2022-10-16T04:33:33;3.05;;;1.45;;
24457;SDS011;12629;50.860;5.714;2022-10-16T04:36:01;4.10;;;1.60;;
24457;SDS011;12629;50.860;5.714;2022-10-16T04:38:29;1.95;;;1.30;;
24457;SDS011;12629;50.860;5.714;2022-10-16T04:40:56;2.97;;;1.35;;
24457;SDS011;12629;50.860;5.714;2022-10-16T04:43:24;2.65;;;1.48;;
24457;SDS011;12629;50.860;5.714;2022-10-16T04:45:52;3.05;;;1.35;;
24457;SDS011;12629;50.860;5.714;2022-10-16T04:48:21;4.03;;;1.60;;
24457;SDS011;12629;50.860;5.714;2022-10-16T04:50:48;2.25;;;1.30;;
24457;SDS011;12629;50.860;5.714;2022-10-16T04:53:16;2.72;;;1.55;;
24457;SDS011;12629;50.860;5.714;2022-10-16T04:55:43;2.90;;;1.67;;
24457;SDS011;12629;50.860;5.714;2022-10-16T04:58:10;3.15;;;1.42;;
24457;SDS011;12629;50.860;5.714;2022-10-16T05:00:38;4.45;;;1.77;;
24457;SDS011;12629;50.860;5.714;2022-10-16T05:03:05;2.95;;;1.60;;
24457;SDS011;12629;50.860;5.714;2022-10-16T05:05:35;3.67;;;2.00;;
24457;SDS011;12629;50.860;5.714;2022-10-16T05:08:03;5.10;;;1.67;;
24457;SDS011;12629;50.860;5.714;2022-10-16T05:10:30;1.80;;;1.42;;
24457;SDS011;12629;50.860;5.714;2022-10-16T05:12:57;4.20;;;1.58;;
24457;SDS011;12629;50.860;5.714;2022-10-16T05:15:24;6.13;;;1.80;;
24457;SDS011;12629;50.860;5.714;2022-10-16T05:17:52;3.95;;;1.80;;
24457;SDS011;12629;50.860;5.714;2022-10-16T05:20:20;2.40;;;1.60;;
24457;SDS011;12629;50.860;5.714;2022-10-16T05:22:48;3.35;;;1.60;;
24457;SDS011;12629;50.860;5.714;2022-10-16T05:25:16;3.28;;;1.45;;
24457;SDS011;12629;50.860;5.714;2022-10-16T05:27:46;2.83;;;1.70;;
24457;SDS011;12629;50.860;5.714;2022-10-16T05:30:14;6.40;;;1.70;;
24457;SDS011;12629;50.860;5.714;2022-10-16T05:32:45;3.15;;;1.50;;
24457;SDS011;12629;50.860;5.714;2022-10-16T05:35:13;2.95;;;1.58;;
24457;SDS011;12629;50.860;5.714;2022-10-16T05:37:40;5.03;;;1.60;;
24457;SDS011;12629;50.860;5.714;2022-10-16T05:40:09;3.88;;;1.60;;
24457;SDS011;12629;50.860;5.714;2022-10-16T05:42:38;2.25;;;1.50;;
24457;SDS011;12629;50.860;5.714;2022-10-16T05:45:05;4.80;;;1.70;;
24457;SDS011;12629;50.860;5.714;2022-10-16T05:47:34;2.42;;;1.70;;
24457;SDS011;12629;50.860;5.714;2022-10-16T05:50:02;2.28;;;1.50;;
24457;SDS011;12629;50.860;5.714;2022-10-16T05:52:30;2.20;;;1.30;;
24457;SDS011;12629;50.860;5.714;2022-10-16T05:54:57;4.18;;;1.27;;
24457;SDS011;12629;50.860;5.714;2022-10-16T05:57:26;5.75;;;1.83;;
24457;SDS011;12629;50.860;5.714;2022-10-16T05:59:53;3.38;;;1.52;;
24457;SDS011;12629;50.860;5.714;2022-10-16T06:02:20;4.43;;;1.83;;
24457;SDS011;12629;50.860;5.714;2022-10-16T06:04:47;6.30;;;1.60;;
24457;SDS011;12629;50.860;5.714;2022-10-16T06:07:15;4.18;;;1.90;;
24457;SDS011;12629;50.860;5.714;2022-10-16T06:09:42;4.22;;;1.83;;
24457;SDS011;12629;50.860;5.714;2022-10-16T06:12:09;3.08;;;1.85;;
24457;SDS011;12629;50.860;5.714;2022-10-16T06:14:38;4.82;;;2.00;;
24457;SDS011;12629;50.860;5.714;2022-10-16T06:17:05;5.45;;;1.77;;
24457;SDS011;12629;50.860;5.714;2022-10-16T06:19:32;3.42;;;1.63;;
24457;SDS011;12629;50.860;5.714;2022-10-16T06:21:59;4.53;;;1.70;;
24457;SDS011;12629;50.860;5.714;2022-10-16T06:24:27;4.70;;;2.00;;
24457;SDS011;12629;50.860;5.714;2022-10-16T06:26:54;5.15;;;1.70;;
24457;SDS011;12629;50.860;5.714;2022-10-16T06:29:22;4.82;;;1.80;;
24457;SDS011;12629;50.860;5.714;2022-10-16T06:31:50;2.97;;;1.58;;
24457;SDS011;12629;50.860;5.714;2022-10-16T06:34:18;4.93;;;1.98;;
24457;SDS011;12629;50.860;5.714;2022-10-16T06:36:45;3.25;;;1.67;;
24457;SDS011;12629;50.860;5.714;2022-10-16T06:39:12;5.63;;;1.77;;
24457;SDS011;12629;50.860;5.714;2022-10-16T06:41:39;4.00;;;1.83;;
24457;SDS011;12629;50.860;5.714;2022-10-16T06:44:06;2.22;;;1.60;;
24457;SDS011;12629;50.860;5.714;2022-10-16T06:46:34;3.47;;;1.77;;
24457;SDS011;12629;50.860;5.714;2022-10-16T06:49:03;6.10;;;1.83;;
24457;SDS011;12629;50.860;5.714;2022-10-16T06:51:30;3.17;;;1.85;;
24457;SDS011;12629;50.860;5.714;2022-10-16T06:53:59;6.70;;;2.05;;
24457;SDS011;12629;50.860;5.714;2022-10-16T06:56:27;4.70;;;1.80;;
24457;SDS011;12629;50.860;5.714;2022-10-16T06:58:56;4.38;;;1.73;;
24457;SDS011;12629;50.860;5.714;2022-10-16T07:01:23;3.28;;;1.77;;
24457;SDS011;12629;50.860;5.714;2022-10-16T07:03:51;3.42;;;1.67;;
24457;SDS011;12629;50.860;5.714;2022-10-16T07:06:21;2.58;;;1.50;;
24457;SDS011;12629;50.860;5.714;2022-10-16T07:08:50;3.22;;;1.67;;
24457;SDS011;12629;50.860;5.714;2022-10-16T07:11:18;6.97;;;1.85;;
24457;SDS011;12629;50.860;5.714;2022-10-16T07:13:47;6.88;;;1.85;;
24457;SDS011;12629;50.860;5.714;2022-10-16T07:16:16;3.25;;;1.60;;
24457;SDS011;12629;50.860;5.714;2022-10-16T07:18:45;7.20;;;1.65;;
24457;SDS011;12629;50.860;5.714;2022-10-16T07:21:15;3.15;;;1.60;;
24457;SDS011;12629;50.860;5.714;2022-10-16T07:23:45;6.28;;;1.55;;
24457;SDS011;12629;50.860;5.714;2022-10-16T07:26:17;3.38;;;1.45;;
24457;SDS011;12629;50.860;5.714;2022-10-16T07:28:44;4.03;;;1.67;;
24457;SDS011;12629;50.860;5.714;2022-10-16T07:31:12;7.03;;;1.90;;
24457;SDS011;12629;50.860;5.714;2022-10-16T07:33:42;3.35;;;1.80;;
24457;SDS011;12629;50.860;5.714;2022-10-16T07:36:10;3.75;;;1.70;;
24457;SDS011;12629;50.860;5.714;2022-10-16T07:38:38;11.15;;;1.90;;
24457;SDS011;12629;50.860;5.714;2022-10-16T07:41:10;2.58;;;1.40;;
24457;SDS011;12629;50.860;5.714;2022-10-16T07:43:38;3.50;;;1.50;;
24457;SDS011;12629;50.860;5.714;2022-10-16T07:46:06;3.75;;;1.50;;
24457;SDS011;12629;50.860;5.714;2022-10-16T07:48:34;3.58;;;1.40;;
24457;SDS011;12629;50.860;5.714;2022-10-16T07:51:01;2.92;;;1.50;;
24457;SDS011;12629;50.860;5.714;2022-10-16T07:53:30;3.85;;;1.33;;
24457;SDS011;12629;50.860;5.714;2022-10-16T07:55:58;3.72;;;1.50;;
24457;SDS011;12629;50.860;5.714;2022-10-16T07:58:27;3.88;;;1.40;;
24457;SDS011;12629;50.860;5.714;2022-10-16T08:00:55;4.10;;;1.40;;
24457;SDS011;12629;50.860;5.714;2022-10-16T08:03:22;3.85;;;1.23;;
24457;SDS011;12629;50.860;5.714;2022-10-16T08:05:50;3.58;;;1.30;;
24457;SDS011;12629;50.860;5.714;2022-10-16T08:08:18;4.22;;;1.55;;
24457;SDS011;12629;50.860;5.714;2022-10-16T08:10:45;5.05;;;1.25;;
24457;SDS011;12629;50.860;5.714;2022-10-16T08:13:13;2.03;;;1.00;;
24457;SDS011;12629;50.860;5.714;2022-10-16T08:15:42;3.97;;;1.20;;
24457;SDS011;12629;50.860;5.714;2022-10-16T08:18:10;3.67;;;1.20;;
24457;SDS011;12629;50.860;5.714;2022-10-16T08:20:38;2.47;;;0.90;;
24457;SDS011;12629;50.860;5.714;2022-10-16T08:23:06;2.20;;;0.90;;
24457;SDS011;12629;50.860;5.714;2022-10-16T08:25:34;2.58;;;0.90;;
24457;SDS011;12629;50.860;5.714;2022-10-16T08:28:03;2.20;;;0.88;;
24457;SDS011;12629;50.860;5.714;2022-10-16T08:30:31;2.13;;;0.90;;
24457;SDS011;12629;50.860;5.714;2022-10-16T08:33:00;2.20;;;0.93;;
24457;SDS011;12629;50.860;5.714;2022-10-16T08:35:28;2.88;;;1.02;;
24457;SDS011;12629;50.860;5.714;2022-10-16T08:37:55;3.45;;;0.90;;
24457;SDS011;12629;50.860;5.714;2022-10-16T08:40:23;3.00;;;1.00;;
24457;SDS011;12629;50.860;5.714;2022-10-16T08:42:56;2.85;;;1.20;;
24457;SDS011;12629;50.860;5.714;2022-10-16T08:45:58;2.85;;;1.00;;
24457;SDS011;12629;50.860;5.714;2022-10-16T08:48:48;1.90;;;0.82;;
24457;SDS011;12629;50.860;5.714;2022-10-16T08:51:18;4.30;;;0.90;;
24457;SDS011;12629;50.860;5.714;2022-10-16T08:53:49;3.72;;;1.00;;
24457;SDS011;12629;50.860;5.714;2022-10-16T08:58:47;1.75;;;0.80;;
24457;SDS011;12629;50.860;5.714;2022-10-16T09:01:15;3.90;;;0.93;;
24457;SDS011;12629;50.860;5.714;2022-10-16T09:03:56;3.40;;;1.00;;
24457;SDS011;12629;50.860;5.714;2022-10-16T09:06:46;2.38;;;0.90;;
24457;SDS011;12629;50.860;5.714;2022-10-16T09:09:26;3.60;;;1.20;;
24457;SDS011;12629;50.860;5.714;2022-10-16T09:12:08;5.50;;;0.90;;
24457;SDS011;12629;50.860;5.714;2022-10-16T09:14:48;3.10;;;1.08;;
24457;SDS011;12629;50.860;5.714;2022-10-16T09:17:24;7.07;;;1.10;;
24457;SDS011;12629;50.860;5.714;2022-10-16T09:20:03;1.80;;;0.80;;
24457;SDS011;12629;50.860;5.714;2022-10-16T09:22:46;3.40;;;1.00;;
24457;SDS011;12629;50.860;5.714;2022-10-16T09:25:14;2.47;;;0.95;;
24457;SDS011;12629;50.860;5.714;2022-10-16T09:27:42;3.65;;;0.93;;
24457;SDS011;12629;50.860;5.714;2022-10-16T09:30:13;4.82;;;1.10;;
24457;SDS011;12629;50.860;5.714;2022-10-16T09:32:42;4.03;;;1.00;;
24457;SDS011;12629;50.860;5.714;2022-10-16T09:35:15;3.67;;;1.13;;
24457;SDS011;12629;50.860;5.714;2022-10-16T09:37:46;4.80;;;1.00;;
24457;SDS011;12629;50.860;5.714;2022-10-16T09:40:24;2.33;;;0.90;;
24457;SDS011;12629;50.860;5.714;2022-10-16T09:42:53;2.60;;;1.00;;
24457;SDS011;12629;50.860;5.714;2022-10-16T09:45:27;2.17;;;0.77;;
24457;SDS011;12629;50.860;5.714;2022-10-16T09:47:54;2.67;;;0.90;;
24457;SDS011;12629;50.860;5.714;2022-10-16T09:50:24;3.28;;;1.02;;
24457;SDS011;12629;50.860;5.714;2022-10-16T09:53:05;3.75;;;1.10;;
24457;SDS011;12629;50.860;5.714;2022-10-16T09:55:47;4.35;;;0.80;;
24457;SDS011;12629;50.860;5.714;2022-10-16T09:58:15;2.78;;;1.13;;
24457;SDS011;12629;50.860;5.714;2022-10-16T10:00:48;2.03;;;1.10;;
24457;SDS011;12629;50.860;5.714;2022-10-16T10:03:23;3.95;;;1.20;;
24457;SDS011;12629;50.860;5.714;2022-10-16T10:06:06;2.22;;;1.00;;
24457;SDS011;12629;50.860;5.714;2022-10-16T10:08:56;3.40;;;1.02;;
24457;SDS011;12629;50.860;5.714;2022-10-16T10:11:38;2.10;;;1.15;;
24457;SDS011;12629;50.860;5.714;2022-10-16T10:14:09;3.45;;;1.00;;
24457;SDS011;12629;50.860;5.714;2022-10-16T10:16:46;2.15;;;0.95;;
24457;SDS011;12629;50.860;5.714;2022-10-16T10:19:14;3.03;;;0.88;;
24457;SDS011;12629;50.860;5.714;2022-10-16T10:21:44;4.10;;;0.80;;
24457;SDS011;12629;50.860;5.714;2022-10-16T10:24:12;2.92;;;0.95;;
24457;SDS011;12629;50.860;5.714;2022-10-16T10:26:42;2.67;;;0.90;;
24457;SDS011;12629;50.860;5.714;2022-10-16T10:29:18;2.17;;;0.80;;
24457;SDS011;12629;50.860;5.714;2022-10-16T10:31:54;3.28;;;0.95;;
24457;SDS011;12629;50.860;5.714;2022-10-16T10:34:35;2.20;;;1.00;;
24457;SDS011;12629;50.860;5.714;2022-10-16T10:37:38;3.10;;;0.90;;
24457;SDS011;12629;50.860;5.714;2022-10-16T10:40:23;3.20;;;1.00;;
24457;SDS011;12629;50.860;5.714;2022-10-16T10:43:02;3.58;;;0.98;;
24457;SDS011;12629;50.860;5.714;2022-10-16T10:45:37;2.47;;;1.00;;
24457;SDS011;12629;50.860;5.714;2022-10-16T10:48:18;2.55;;;0.80;;
24457;SDS011;12629;50.860;5.714;2022-10-16T10:51:03;3.08;;;1.08;;
24457;SDS011;12629;50.860;5.714;2022-10-16T10:53:38;2.35;;;1.08;;
24457;SDS011;12629;50.860;5.714;2022-10-16T10:56:14;4.13;;;1.02;;
24457;SDS011;12629;50.860;5.714;2022-10-16T11:01:54;5.05;;;0.90;;
24457;SDS011;12629;50.860;5.714;2022-10-16T11:04:42;3.55;;;1.08;;
24457;SDS011;12629;50.860;5.714;2022-10-16T11:07:20;3.42;;;1.05;;
24457;SDS011;12629;50.860;5.714;2022-10-16T11:09:53;5.38;;;1.00;;
24457;SDS011;12629;50.860;5.714;2022-10-16T11:12:25;3.85;;;1.60;;
24457;SDS011;12629;50.860;5.714;2022-10-16T11:14:56;1.88;;;0.88;;
24457;SDS011;12629;50.860;5.714;2022-10-16T11:17:28;1.80;;;0.88;;
24457;SDS011;12629;50.860;5.714;2022-10-16T11:20:02;3.25;;;1.10;;
24457;SDS011;12629;50.860;5.714;2022-10-16T11:22:38;3.95;;;1.23;;
24457;SDS011;12629;50.860;5.714;2022-10-16T11:25:13;3.80;;;0.90;;
24457;SDS011;12629;50.860;5.714;2022-10-16T11:27:44;5.07;;;1.73;;
24457;SDS011;12629;50.860;5.714;2022-10-16T11:30:18;3.20;;;0.90;;
24457;SDS011;12629;50.860;5.714;2022-10-16T11:32:52;3.17;;;0.90;;
24457;SDS011;12629;50.860;5.714;2022-10-16T11:35:30;2.78;;;0.80;;
24457;SDS011;12629;50.860;5.714;2022-10-16T11:38:07;1.77;;;0.88;;
24457;SDS011;12629;50.860;5.714;2022-10-16T11:40:42;5.15;;;1.30;;
24457;SDS011;12629;50.860;5.714;2022-10-16T11:43:15;2.53;;;0.90;;
24457;SDS011;12629;50.860;5.714;2022-10-16T11:45:49;3.28;;;1.05;;
24457;SDS011;12629;50.860;5.714;2022-10-16T11:48:21;1.87;;;0.80;;
24457;SDS011;12629;50.860;5.714;2022-10-16T11:50:54;2.35;;;0.95;;
24457;SDS011;12629;50.860;5.714;2022-10-16T11:53:34;3.20;;;1.10;;
24457;SDS011;12629;50.860;5.714;2022-10-16T11:56:13;1.92;;;0.88;;
24457;SDS011;12629;50.860;5.714;2022-10-16T11:58:46;3.53;;;0.90;;
24457;SDS011;12629;50.860;5.714;2022-10-16T12:01:22;3.20;;;0.82;;
24457;SDS011;12629;50.860;5.714;2022-10-16T12:03:58;3.35;;;1.00;;
24457;SDS011;12629;50.860;5.714;2022-10-16T12:06:34;4.43;;;1.00;;
24457;SDS011;12629;50.860;5.714;2022-10-16T12:09:04;1.58;;;0.90;;
24457;SDS011;12629;50.860;5.714;2022-10-16T12:11:34;3.38;;;1.08;;
24457;SDS011;12629;50.860;5.714;2022-10-16T12:14:04;3.80;;;1.08;;
24457;SDS011;12629;50.860;5.714;2022-10-16T12:16:52;3.17;;;0.98;;
24457;SDS011;12629;50.860;5.714;2022-10-16T12:19:21;1.33;;;0.75;;
24457;SDS011;12629;50.860;5.714;2022-10-16T12:21:50;2.80;;;1.13;;
24457;SDS011;12629;50.860;5.714;2022-10-16T12:24:21;3.40;;;0.80;;
24457;SDS011;12629;50.860;5.714;2022-10-16T12:26:57;2.88;;;1.15;;
24457;SDS011;12629;50.860;5.714;2022-10-16T12:29:28;2.78;;;0.80;;
24457;SDS011;12629;50.860;5.714;2022-10-16T12:32:02;1.80;;;1.00;;
24457;SDS011;12629;50.860;5.714;2022-10-16T12:34:34;3.03;;;0.80;;
24457;SDS011;12629;50.860;5.714;2022-10-16T12:37:09;2.88;;;0.80;;
24457;SDS011;12629;50.860;5.714;2022-10-16T12:39:40;2.40;;;1.00;;
24457;SDS011;12629;50.860;5.714;2022-10-16T12:42:22;3.17;;;0.90;;
24457;SDS011;12629;50.860;5.714;2022-10-16T12:45:01;2.92;;;0.90;;
24457;SDS011;12629;50.860;5.714;2022-10-16T12:47:47;1.95;;;0.90;;
24457;SDS011;12629;50.860;5.714;2022-10-16T12:50:30;2.33;;;0.80;;
24457;SDS011;12629;50.860;5.714;2022-10-16T12:53:00;3.35;;;1.05;;
24457;SDS011;12629;50.860;5.714;2022-10-16T12:55:32;2.08;;;0.80;;
24457;SDS011;12629;50.860;5.714;2022-10-16T12:58:12;2.13;;;1.15;;
24457;SDS011;12629;50.860;5.714;2022-10-16T13:01:12;1.57;;;0.80;;
24457;SDS011;12629;50.860;5.714;2022-10-16T13:03:57;3.35;;;1.15;;
24457;SDS011;12629;50.860;5.714;2022-10-16T13:06:38;2.97;;;1.20;;
24457;SDS011;12629;50.860;5.714;2022-10-16T13:09:18;4.95;;;1.00;;
24457;SDS011;12629;50.860;5.714;2022-10-16T13:11:57;3.50;;;0.90;;
24457;SDS011;12629;50.860;5.714;2022-10-16T13:14:42;2.10;;;1.05;;
24457;SDS011;12629;50.860;5.714;2022-10-16T13:17:33;2.75;;;0.95;;
24457;SDS011;12629;50.860;5.714;2022-10-16T13:20:10;1.98;;;1.15;;
24457;SDS011;12629;50.860;5.714;2022-10-16T13:22:45;2.28;;;1.00;;
24457;SDS011;12629;50.860;5.714;2022-10-16T13:25:22;2.20;;;0.80;;
24457;SDS011;12629;50.860;5.714;2022-10-16T13:27:56;2.85;;;1.00;;
24457;SDS011;12629;50.860;5.714;2022-10-16T13:30:28;1.65;;;1.00;;
24457;SDS011;12629;50.860;5.714;2022-10-16T13:35:27;2.70;;;0.88;;
24457;SDS011;12629;50.860;5.714;2022-10-16T13:38:06;1.70;;;0.80;;
24457;SDS011;12629;50.860;5.714;2022-10-16T13:40:52;2.72;;;1.00;;
24457;SDS011;12629;50.860;5.714;2022-10-16T13:43:23;1.42;;;0.80;;
24457;SDS011;12629;50.860;5.714;2022-10-16T13:45:59;3.83;;;1.50;;
24457;SDS011;12629;50.860;5.714;2022-10-16T13:48:28;3.70;;;1.00;;
24457;SDS011;12629;50.860;5.714;2022-10-16T13:51:00;3.00;;;0.90;;
24457;SDS011;12629;50.860;5.714;2022-10-16T13:55:56;2.28;;;1.00;;
24457;SDS011;12629;50.860;5.714;2022-10-16T13:58:25;1.67;;;0.80;;
24457;SDS011;12629;50.860;5.714;2022-10-16T14:00:56;3.35;;;1.10;;
24457;SDS011;12629;50.860;5.714;2022-10-16T14:03:26;4.32;;;1.23;;
24457;SDS011;12629;50.860;5.714;2022-10-16T14:05:55;2.55;;;1.20;;
24457;SDS011;12629;50.860;5.714;2022-10-16T14:08:25;1.77;;;0.90;;
24457;SDS011;12629;50.860;5.714;2022-10-16T14:10:55;2.33;;;1.08;;
24457;SDS011;12629;50.860;5.714;2022-10-16T14:13:27;2.70;;;1.30;;
24457;SDS011;12629;50.860;5.714;2022-10-16T14:15:59;2.97;;;0.90;;
24457;SDS011;12629;50.860;5.714;2022-10-16T14:18:31;3.13;;;1.00;;
24457;SDS011;12629;50.860;5.714;2022-10-16T14:21:02;3.95;;;1.30;;
24457;SDS011;12629;50.860;5.714;2022-10-16T14:23:32;3.83;;;1.40;;
24457;SDS011;12629;50.860;5.714;2022-10-16T14:26:06;3.95;;;1.10;;
24457;SDS011;12629;50.860;5.714;2022-10-16T14:28:40;3.05;;;1.13;;
24457;SDS011;12629;50.860;5.714;2022-10-16T14:31:29;3.05;;;1.13;;
24457;SDS011;12629;50.860;5.714;2022-10-16T14:33:58;3.58;;;1.20;;
24457;SDS011;12629;50.860;5.714;2022-10-16T14:36:27;5.18;;;1.35;;
24457;SDS011;12629;50.860;5.714;2022-10-16T14:38:59;3.92;;;1.17;;
24457;SDS011;12629;50.860;5.714;2022-10-16T14:41:29;2.85;;;1.30;;
24457;SDS011;12629;50.860;5.714;2022-10-16T14:44:00;2.92;;;1.30;;
24457;SDS011;12629;50.860;5.714;2022-10-16T14:46:32;5.18;;;1.30;;
24457;SDS011;12629;50.860;5.714;2022-10-16T14:49:15;2.78;;;1.42;;
24457;SDS011;12629;50.860;5.714;2022-10-16T14:51:45;4.25;;;1.40;;
24457;SDS011;12629;50.860;5.714;2022-10-16T14:54:13;4.30;;;1.63;;
24457;SDS011;12629;50.860;5.714;2022-10-16T14:56:43;3.95;;;1.30;;
24457;SDS011;12629;50.860;5.714;2022-10-16T14:59:14;7.00;;;1.67;;
24457;SDS011;12629;50.860;5.714;2022-10-16T15:01:46;3.22;;;1.30;;
24457;SDS011;12629;50.860;5.714;2022-10-16T15:04:14;4.28;;;1.30;;
24457;SDS011;12629;50.860;5.714;2022-10-16T15:06:41;5.07;;;1.40;;
24457;SDS011;12629;50.860;5.714;2022-10-16T15:09:09;4.32;;;1.30;;
24457;SDS011;12629;50.860;5.714;2022-10-16T15:11:36;3.25;;;1.40;;
24457;SDS011;12629;50.860;5.714;2022-10-16T15:14:04;2.72;;;1.27;;
24457;SDS011;12629;50.860;5.714;2022-10-16T15:16:32;2.05;;;1.15;;
24457;SDS011;12629;50.860;5.714;2022-10-16T15:19:00;2.85;;;1.25;;
24457;SDS011;12629;50.860;5.714;2022-10-16T15:21:28;4.68;;;1.40;;
24457;SDS011;12629;50.860;5.714;2022-10-16T15:23:58;3.38;;;1.20;;
24457;SDS011;12629;50.860;5.714;2022-10-16T15:26:27;3.92;;;1.10;;